EJU91PC LSGG-LEZL
Flight info
| Callsign | EJU91PC |
|---|---|
| Flight time | 2h 1m |
| Altitude | 29000 |
| Route | DEPUL T544 LSE DCT RUSIT/N0402F310 DCT ESIDA DCT LERGA/N0430F370 DCT MINSO/N0432F390 DCT NARAK DCT AGN DCT MAQAB DCT TIVLI N869 ZAR Z245 CJN DCT PALIO DCT AKOKI DCT GOTOR DCT KAMPO DCT MONTO DCT MOLIN DCT HIJ |
| Aircraft | A320/M-SDE2E3FGHIJ1RWXYZ/LB1 |
Departure
| Time | 2026-04-15 06:19 |
|---|---|
| Airport | Geneva International Airport (LSGG) |
Arrival
| Time | 2026-04-15 08:21 |
|---|---|
| Airport | Seville Airport (LEZL) |
| Time | Latitude | Longitude | Altitude | Speed | Heading |
|---|---|---|---|---|---|
| 2026-04-15 05:39 | 46.23106 | 6.10323 | 1393 ft | 0 kts | 270° |
| 2026-04-15 06:14 | 46.23106 | 6.10300 | 1393 ft | 4 kts | 270° |
| 2026-04-15 06:14 | 46.23106 | 6.10270 | 1397 ft | 2 kts | 270° |
| 2026-04-15 06:14 | 46.23106 | 6.10257 | 1393 ft | 0 kts | 270° |
| 2026-04-15 06:14 | 46.23106 | 6.10256 | 1393 ft | 1 kts | 270° |
| 2026-04-15 06:15 | 46.23097 | 6.10192 | 1397 ft | 12 kts | 239° |
| 2026-04-15 06:15 | 46.23041 | 6.10105 | 1399 ft | 11 kts | 225° |
| 2026-04-15 06:15 | 46.22992 | 6.10033 | 1405 ft | 9 kts | 225° |
| 2026-04-15 06:15 | 46.22928 | 6.09941 | 1395 ft | 17 kts | 225° |
| 2026-04-15 06:16 | 46.22841 | 6.09817 | 1400 ft | 18 kts | 224° |
| 2026-04-15 06:16 | 46.22754 | 6.09689 | 1395 ft | 18 kts | 225° |
| 2026-04-15 06:16 | 46.22661 | 6.09550 | 1400 ft | 20 kts | 226° |
| 2026-04-15 06:16 | 46.22570 | 6.09398 | 1397 ft | 18 kts | 246° |
| 2026-04-15 06:17 | 46.22546 | 6.09271 | 1411 ft | 7 kts | 267° |
| 2026-04-15 06:17 | 46.22547 | 6.09240 | 1409 ft | 3 kts | 272° |
| 2026-04-15 06:17 | 46.22556 | 6.09190 | 1415 ft | 3 kts | 298° |
| 2026-04-15 06:17 | 46.22585 | 6.09144 | 1415 ft | 10 kts | 320° |
| 2026-04-15 06:18 | 46.22595 | 6.09135 | 1416 ft | 0 kts | 326° |
| 2026-04-15 06:18 | 46.22598 | 6.09136 | 1416 ft | 2 kts | 355° |
| 2026-04-15 06:18 | 46.22618 | 6.09151 | 1416 ft | 3 kts | 43° |
| 2026-04-15 06:18 | 46.22698 | 6.09269 | 1419 ft | 48 kts | 45° |
| 2026-04-15 06:19 | 46.23109 | 6.09872 | 1409 ft | 118 kts | 45° |
| 2026-04-15 06:19 | 46.23810 | 6.10901 | 1409 ft | 168 kts | 46° |
| 2026-04-15 06:19 | 46.24612 | 6.12101 | 2150 ft | 165 kts | 46° |
| 2026-04-15 06:19 | 46.25407 | 6.13316 | 2975 ft | 163 kts | 46° |
| 2026-04-15 06:20 | 46.26205 | 6.14504 | 3663 ft | 165 kts | 45° |
| 2026-04-15 06:20 | 46.27003 | 6.15663 | 4359 ft | 165 kts | 44° |
| 2026-04-15 06:20 | 46.27833 | 6.16841 | 4928 ft | 174 kts | 44° |
| 2026-04-15 06:20 | 46.28795 | 6.18044 | 5277 ft | 194 kts | 33° |
| 2026-04-15 06:21 | 46.30085 | 6.18914 | 5527 ft | 217 kts | 16° |
| 2026-04-15 06:21 | 46.31644 | 6.19162 | 5857 ft | 238 kts | 356° |
| 2026-04-15 06:21 | 46.33286 | 6.18558 | 6494 ft | 250 kts | 335° |
| 2026-04-15 06:21 | 46.34748 | 6.17074 | 7038 ft | 269 kts | 313° |
| 2026-04-15 06:22 | 46.35736 | 6.14728 | 7722 ft | 280 kts | 289° |
| 2026-04-15 06:22 | 46.35995 | 6.11926 | 8566 ft | 285 kts | 265° |
| 2026-04-15 06:22 | 46.35442 | 6.09154 | 9189 ft | 292 kts | 239° |
| 2026-04-15 06:22 | 46.34092 | 6.06982 | 10100 ft | 293 kts | 214° |
| 2026-04-15 06:23 | 46.32230 | 6.05760 | 10795 ft | 302 kts | 195° |
| 2026-04-15 06:23 | 46.30122 | 6.04934 | 11091 ft | 325 kts | 194° |
| 2026-04-15 06:23 | 46.27884 | 6.04123 | 11667 ft | 336 kts | 193° |
| 2026-04-15 06:23 | 46.25591 | 6.03315 | 12390 ft | 342 kts | 193° |
| 2026-04-15 06:24 | 46.23256 | 6.02490 | 13138 ft | 348 kts | 193° |
| 2026-04-15 06:24 | 46.20884 | 6.01641 | 13871 ft | 354 kts | 194° |
| 2026-04-15 06:24 | 46.18537 | 6.00502 | 14503 ft | 359 kts | 205° |
| 2026-04-15 06:24 | 46.16386 | 5.98629 | 15134 ft | 364 kts | 218° |
| 2026-04-15 06:25 | 46.14556 | 5.96099 | 15782 ft | 366 kts | 232° |
| 2026-04-15 06:25 | 46.13069 | 5.93108 | 16431 ft | 369 kts | 237° |
| 2026-04-15 06:25 | 46.11608 | 5.90035 | 17080 ft | 374 kts | 237° |
| 2026-04-15 06:25 | 46.10128 | 5.86932 | 17734 ft | 378 kts | 237° |
| 2026-04-15 06:26 | 46.08627 | 5.83800 | 18365 ft | 382 kts | 237° |
| 2026-04-15 06:26 | 46.07106 | 5.80628 | 18920 ft | 387 kts | 237° |
| 2026-04-15 06:26 | 46.05567 | 5.77427 | 19469 ft | 391 kts | 237° |
| 2026-04-15 06:26 | 46.04013 | 5.74195 | 20024 ft | 394 kts | 237° |
| 2026-04-15 06:27 | 46.02442 | 5.70934 | 20577 ft | 398 kts | 237° |
| 2026-04-15 06:27 | 46.00855 | 5.67643 | 21092 ft | 403 kts | 237° |
| 2026-04-15 06:27 | 45.99247 | 5.64323 | 21621 ft | 406 kts | 237° |
| 2026-04-15 06:27 | 45.97647 | 5.61020 | 22141 ft | 410 kts | 237° |
| 2026-04-15 06:28 | 45.96029 | 5.57626 | 22631 ft | 413 kts | 239° |
| 2026-04-15 06:28 | 45.94457 | 5.54153 | 23150 ft | 416 kts | 240° |
| 2026-04-15 06:28 | 45.92915 | 5.50611 | 23650 ft | 419 kts | 241° |
| 2026-04-15 06:28 | 45.91383 | 5.47036 | 24095 ft | 422 kts | 241° |
| 2026-04-15 06:29 | 45.89835 | 5.43437 | 24522 ft | 425 kts | 241° |
| 2026-04-15 06:29 | 45.88265 | 5.39826 | 24961 ft | 427 kts | 241° |
| 2026-04-15 06:29 | 45.86674 | 5.36212 | 25389 ft | 430 kts | 241° |
| 2026-04-15 06:29 | 45.85065 | 5.32580 | 25810 ft | 432 kts | 241° |
| 2026-04-15 06:30 | 45.83443 | 5.28934 | 26194 ft | 435 kts | 241° |
| 2026-04-15 06:30 | 45.81804 | 5.25263 | 26585 ft | 438 kts | 241° |
| 2026-04-15 06:30 | 45.80152 | 5.21577 | 26984 ft | 441 kts | 241° |
| 2026-04-15 06:30 | 45.78492 | 5.17874 | 27379 ft | 443 kts | 241° |
| 2026-04-15 06:31 | 45.76823 | 5.14148 | 27781 ft | 446 kts | 242° |
| 2026-04-15 06:31 | 45.75148 | 5.10403 | 28144 ft | 448 kts | 242° |
| 2026-04-15 06:31 | 45.73503 | 5.06614 | 28592 ft | 448 kts | 243° |
| 2026-04-15 06:31 | 45.71948 | 5.02754 | 29011 ft | 448 kts | 245° |
| 2026-04-15 06:32 | 45.70454 | 4.98836 | 29397 ft | 449 kts | 246° |
| 2026-04-15 06:32 | 45.68981 | 4.94881 | 29778 ft | 451 kts | 246° |
| 2026-04-15 06:32 | 45.67498 | 4.90909 | 30152 ft | 454 kts | 246° |
| 2026-04-15 06:32 | 45.66004 | 4.86923 | 30462 ft | 456 kts | 247° |
| 2026-04-15 06:33 | 45.64562 | 4.82941 | 30756 ft | 458 kts | 248° |
| 2026-04-15 06:33 | 45.63129 | 4.78867 | 31047 ft | 460 kts | 249° |
| 2026-04-15 06:33 | 45.61707 | 4.74768 | 31321 ft | 461 kts | 249° |
| 2026-04-15 06:33 | 45.60280 | 4.70651 | 31592 ft | 464 kts | 249° |
| 2026-04-15 06:34 | 45.58838 | 4.66521 | 31899 ft | 464 kts | 248° |
| 2026-04-15 06:34 | 45.57391 | 4.62423 | 32373 ft | 461 kts | 248° |
| 2026-04-15 06:34 | 45.55940 | 4.58350 | 32804 ft | 460 kts | 248° |
| 2026-04-15 06:34 | 45.54487 | 4.54294 | 33198 ft | 459 kts | 248° |
| 2026-04-15 06:35 | 45.53033 | 4.50247 | 33581 ft | 458 kts | 248° |
| 2026-04-15 06:35 | 45.51579 | 4.46207 | 33963 ft | 457 kts | 248° |
| 2026-04-15 06:35 | 45.50127 | 4.42177 | 34332 ft | 457 kts | 248° |
| 2026-04-15 06:35 | 45.48676 | 4.38148 | 34648 ft | 457 kts | 248° |
| 2026-04-15 06:36 | 45.47227 | 4.34117 | 34928 ft | 457 kts | 248° |
| 2026-04-15 06:36 | 45.45779 | 4.30090 | 35222 ft | 457 kts | 249° |
| 2026-04-15 06:36 | 45.44329 | 4.26059 | 35483 ft | 457 kts | 248° |
| 2026-04-15 06:36 | 45.42883 | 4.22048 | 35846 ft | 454 kts | 248° |
| 2026-04-15 06:37 | 45.41439 | 4.18059 | 36183 ft | 453 kts | 248° |
| 2026-04-15 06:37 | 45.39998 | 4.14082 | 36482 ft | 452 kts | 248° |
| 2026-04-15 06:37 | 45.39042 | 4.11447 | 36680 ft | 452 kts | 248° |
| 2026-04-15 06:37 | 45.37602 | 4.07480 | 36952 ft | 451 kts | 249° |
| 2026-04-15 06:38 | 45.36162 | 4.03518 | 37171 ft | 451 kts | 248° |
| 2026-04-15 06:38 | 45.33287 | 3.95629 | 37249 ft | 448 kts | 249° |
| 2026-04-15 06:39 | 45.30414 | 3.87788 | 37256 ft | 448 kts | 249° |
| 2026-04-15 06:39 | 45.27536 | 3.79957 | 37254 ft | 445 kts | 248° |
| 2026-04-15 06:40 | 45.24420 | 3.72346 | 37253 ft | 450 kts | 240° |
| 2026-04-15 06:40 | 45.20833 | 3.65066 | 37255 ft | 450 kts | 240° |
| 2026-04-15 06:41 | 45.17236 | 3.57794 | 37257 ft | 450 kts | 240° |
| 2026-04-15 06:41 | 45.13645 | 3.50518 | 37263 ft | 451 kts | 241° |
| 2026-04-15 06:42 | 45.10046 | 3.43246 | 37255 ft | 451 kts | 240° |
| 2026-04-15 06:42 | 45.06440 | 3.35980 | 37255 ft | 452 kts | 240° |
| 2026-04-15 06:43 | 45.02819 | 3.28717 | 37258 ft | 452 kts | 240° |
| 2026-04-15 06:43 | 44.99192 | 3.21464 | 37259 ft | 452 kts | 240° |
| 2026-04-15 06:44 | 44.95560 | 3.14219 | 37258 ft | 452 kts | 240° |
| 2026-04-15 06:44 | 44.91924 | 3.06984 | 37245 ft | 452 kts | 240° |
| 2026-04-15 06:45 | 44.88285 | 2.99752 | 37242 ft | 451 kts | 240° |
| 2026-04-15 06:45 | 44.84673 | 2.92603 | 37258 ft | 450 kts | 240° |
| 2026-04-15 06:46 | 44.81203 | 2.85305 | 37262 ft | 447 kts | 243° |
| 2026-04-15 06:46 | 44.77880 | 2.77915 | 37246 ft | 446 kts | 243° |
| 2026-04-15 06:47 | 44.74547 | 2.70563 | 37234 ft | 446 kts | 243° |
| 2026-04-15 06:47 | 44.71169 | 2.63254 | 37230 ft | 445 kts | 242° |
| 2026-04-15 06:48 | 44.67780 | 2.55991 | 37233 ft | 444 kts | 242° |
| 2026-04-15 06:48 | 44.64398 | 2.48754 | 37233 ft | 443 kts | 242° |
| 2026-04-15 06:49 | 44.61029 | 2.41529 | 37234 ft | 442 kts | 242° |
| 2026-04-15 06:49 | 44.57655 | 2.34319 | 37225 ft | 442 kts | 242° |
| 2026-04-15 06:50 | 44.52583 | 2.23520 | 37214 ft | 442 kts | 242° |
| 2026-04-15 06:50 | 44.49203 | 2.16346 | 37231 ft | 441 kts | 242° |
| 2026-04-15 06:51 | 44.45851 | 2.09239 | 37240 ft | 440 kts | 242° |
| 2026-04-15 06:51 | 44.42475 | 2.02097 | 37242 ft | 440 kts | 242° |
| 2026-04-15 06:52 | 44.39095 | 1.94964 | 37238 ft | 440 kts | 242° |
| 2026-04-15 06:52 | 44.35705 | 1.87838 | 37224 ft | 440 kts | 242° |
| 2026-04-15 06:53 | 44.32319 | 1.80733 | 37252 ft | 439 kts | 242° |
| 2026-04-15 06:53 | 44.28931 | 1.73653 | 37244 ft | 438 kts | 242° |
| 2026-04-15 06:54 | 44.25626 | 1.66528 | 37255 ft | 437 kts | 243° |
| 2026-04-15 06:54 | 44.22382 | 1.59380 | 37252 ft | 436 kts | 243° |
| 2026-04-15 06:55 | 44.19132 | 1.52266 | 37233 ft | 436 kts | 242° |
| 2026-04-15 06:55 | 44.15847 | 1.45154 | 37244 ft | 435 kts | 242° |
| 2026-04-15 06:56 | 44.12566 | 1.38096 | 37247 ft | 434 kts | 242° |
| 2026-04-15 06:56 | 44.09293 | 1.31056 | 37254 ft | 433 kts | 242° |
| 2026-04-15 06:57 | 44.06025 | 1.24026 | 37250 ft | 432 kts | 242° |
| 2026-04-15 06:57 | 44.02764 | 1.17015 | 37248 ft | 432 kts | 242° |
| 2026-04-15 06:58 | 43.99490 | 1.10016 | 37237 ft | 432 kts | 242° |
| 2026-04-15 06:58 | 43.96235 | 1.03088 | 37261 ft | 431 kts | 242° |
| 2026-04-15 06:59 | 43.92959 | 0.96127 | 37265 ft | 430 kts | 242° |
| 2026-04-15 06:59 | 43.89675 | 0.89191 | 37263 ft | 431 kts | 239° |
| 2026-04-15 07:00 | 43.85469 | 0.83130 | 37266 ft | 441 kts | 227° |
| 2026-04-15 07:00 | 43.80893 | 0.77485 | 37258 ft | 440 kts | 227° |
| 2026-04-15 07:01 | 43.76320 | 0.71855 | 37259 ft | 439 kts | 227° |
| 2026-04-15 07:01 | 43.71766 | 0.66244 | 37262 ft | 438 kts | 227° |
| 2026-04-15 07:02 | 43.67218 | 0.60658 | 37257 ft | 437 kts | 226° |
| 2026-04-15 07:02 | 43.62678 | 0.55097 | 37241 ft | 436 kts | 227° |
| 2026-04-15 07:03 | 43.58135 | 0.49539 | 37236 ft | 436 kts | 227° |
| 2026-04-15 07:03 | 43.53599 | 0.43976 | 37232 ft | 437 kts | 227° |
| 2026-04-15 07:04 | 43.49044 | 0.38417 | 37223 ft | 438 kts | 226° |
| 2026-04-15 07:04 | 43.44476 | 0.32889 | 37232 ft | 436 kts | 226° |
| 2026-04-15 07:05 | 43.39932 | 0.27383 | 37232 ft | 435 kts | 226° |
| 2026-04-15 07:05 | 43.35388 | 0.21880 | 37236 ft | 435 kts | 226° |
| 2026-04-15 07:06 | 43.30870 | 0.16429 | 37233 ft | 435 kts | 226° |
| 2026-04-15 07:06 | 43.26319 | 0.10945 | 37218 ft | 435 kts | 226° |
| 2026-04-15 07:07 | 43.21766 | 0.05471 | 37208 ft | 436 kts | 226° |
| 2026-04-15 07:07 | 43.17203 | -0.00012 | 37211 ft | 437 kts | 226° |
| 2026-04-15 07:08 | 43.12642 | -0.05488 | 37254 ft | 436 kts | 226° |
| 2026-04-15 07:08 | 43.08070 | -0.10938 | 37260 ft | 437 kts | 226° |
| 2026-04-15 07:09 | 43.03504 | -0.16370 | 37251 ft | 434 kts | 226° |
| 2026-04-15 07:09 | 42.98947 | -0.21806 | 37217 ft | 435 kts | 226° |
| 2026-04-15 07:10 | 42.94405 | -0.27231 | 37186 ft | 434 kts | 226° |
| 2026-04-15 07:10 | 42.89841 | -0.32640 | 37196 ft | 434 kts | 226° |
| 2026-04-15 07:11 | 42.85256 | -0.38042 | 37186 ft | 435 kts | 226° |
| 2026-04-15 07:11 | 42.80512 | -0.43206 | 37194 ft | 441 kts | 216° |
| 2026-04-15 07:12 | 42.74863 | -0.46642 | 37188 ft | 448 kts | 206° |
| 2026-04-15 07:12 | 42.69038 | -0.49705 | 37207 ft | 449 kts | 206° |
| 2026-04-15 07:13 | 42.63205 | -0.52781 | 37214 ft | 449 kts | 206° |
| 2026-04-15 07:13 | 42.57371 | -0.55847 | 37196 ft | 450 kts | 205° |
| 2026-04-15 07:14 | 42.51516 | -0.58907 | 37203 ft | 451 kts | 206° |
| 2026-04-15 07:14 | 42.45651 | -0.61968 | 37223 ft | 452 kts | 205° |
| 2026-04-15 07:15 | 42.39773 | -0.65014 | 37229 ft | 453 kts | 205° |
| 2026-04-15 07:15 | 42.33929 | -0.68064 | 37244 ft | 453 kts | 205° |
| 2026-04-15 07:16 | 42.28035 | -0.71134 | 37226 ft | 455 kts | 205° |
| 2026-04-15 07:16 | 42.22133 | -0.74202 | 37223 ft | 454 kts | 205° |
| 2026-04-15 07:17 | 42.16235 | -0.77264 | 37218 ft | 454 kts | 205° |
| 2026-04-15 07:17 | 42.10343 | -0.80288 | 37220 ft | 453 kts | 205° |
| 2026-04-15 07:18 | 42.04465 | -0.83300 | 37226 ft | 451 kts | 205° |
| 2026-04-15 07:18 | 41.98609 | -0.86312 | 37219 ft | 450 kts | 205° |
| 2026-04-15 07:19 | 41.92766 | -0.89322 | 37208 ft | 450 kts | 205° |
| 2026-04-15 07:19 | 41.86921 | -0.92316 | 37210 ft | 450 kts | 205° |
| 2026-04-15 07:20 | 41.81076 | -0.95303 | 37200 ft | 449 kts | 205° |
| 2026-04-15 07:20 | 41.75225 | -0.98289 | 37185 ft | 450 kts | 205° |
| 2026-04-15 07:21 | 41.69413 | -1.01250 | 37181 ft | 450 kts | 206° |
| 2026-04-15 07:21 | 41.64041 | -1.05287 | 37178 ft | 439 kts | 224° |
| 2026-04-15 07:22 | 41.59527 | -1.10686 | 37181 ft | 435 kts | 227° |
| 2026-04-15 07:22 | 41.55030 | -1.16117 | 37167 ft | 436 kts | 227° |
| 2026-04-15 07:23 | 41.50525 | -1.21517 | 37189 ft | 435 kts | 227° |
| 2026-04-15 07:23 | 41.46031 | -1.26901 | 37214 ft | 434 kts | 227° |
| 2026-04-15 07:24 | 41.41549 | -1.32285 | 37225 ft | 434 kts | 227° |
| 2026-04-15 07:24 | 41.37057 | -1.37657 | 37235 ft | 433 kts | 227° |
| 2026-04-15 07:25 | 41.32566 | -1.43017 | 37228 ft | 434 kts | 227° |
| 2026-04-15 07:25 | 41.28066 | -1.48377 | 37223 ft | 434 kts | 227° |
| 2026-04-15 07:26 | 41.23561 | -1.53731 | 37225 ft | 434 kts | 226° |
| 2026-04-15 07:26 | 41.19062 | -1.59088 | 37251 ft | 434 kts | 227° |
| 2026-04-15 07:27 | 41.15326 | -1.63526 | 37264 ft | 434 kts | 226° |
| 2026-04-15 07:27 | 41.10830 | -1.68846 | 37262 ft | 432 kts | 226° |
| 2026-04-15 07:28 | 41.06343 | -1.74149 | 37263 ft | 432 kts | 226° |
| 2026-04-15 07:28 | 41.01853 | -1.79447 | 37257 ft | 432 kts | 226° |
| 2026-04-15 07:29 | 40.97360 | -1.84730 | 37257 ft | 432 kts | 226° |
| 2026-04-15 07:29 | 40.92866 | -1.90009 | 37258 ft | 432 kts | 226° |
| 2026-04-15 07:30 | 40.88374 | -1.95266 | 37251 ft | 431 kts | 226° |
| 2026-04-15 07:30 | 40.83898 | -2.00501 | 37255 ft | 429 kts | 226° |
| 2026-04-15 07:31 | 40.79416 | -2.05726 | 37254 ft | 430 kts | 226° |
| 2026-04-15 07:31 | 40.74937 | -2.10946 | 37247 ft | 430 kts | 226° |
| 2026-04-15 07:32 | 40.70453 | -2.16159 | 37251 ft | 430 kts | 226° |
| 2026-04-15 07:32 | 40.65966 | -2.21363 | 37252 ft | 430 kts | 226° |
| 2026-04-15 07:33 | 40.61469 | -2.26557 | 37251 ft | 430 kts | 226° |
| 2026-04-15 07:33 | 40.56984 | -2.31737 | 37256 ft | 428 kts | 226° |
| 2026-04-15 07:34 | 40.52507 | -2.36892 | 37266 ft | 427 kts | 226° |
| 2026-04-15 07:34 | 40.48040 | -2.42026 | 37267 ft | 426 kts | 226° |
| 2026-04-15 07:35 | 40.43575 | -2.47149 | 37259 ft | 426 kts | 226° |
| 2026-04-15 07:35 | 40.39271 | -2.52383 | 37258 ft | 420 kts | 235° |
| 2026-04-15 07:36 | 40.36332 | -2.58844 | 37252 ft | 409 kts | 253° |
| 2026-04-15 07:36 | 40.34729 | -2.65961 | 37243 ft | 407 kts | 258° |
| 2026-04-15 07:37 | 40.33181 | -2.73094 | 37249 ft | 406 kts | 257° |
| 2026-04-15 07:37 | 40.31620 | -2.80199 | 37247 ft | 405 kts | 257° |
| 2026-04-15 07:38 | 40.30064 | -2.87289 | 37243 ft | 405 kts | 257° |
| 2026-04-15 07:38 | 40.28515 | -2.94381 | 37244 ft | 404 kts | 257° |
| 2026-04-15 07:39 | 40.26960 | -3.01448 | 37237 ft | 404 kts | 257° |
| 2026-04-15 07:39 | 40.25403 | -3.08509 | 37228 ft | 403 kts | 257° |
| 2026-04-15 07:40 | 40.23850 | -3.15553 | 37235 ft | 403 kts | 257° |
| 2026-04-15 07:40 | 40.22283 | -3.22597 | 37241 ft | 403 kts | 257° |
| 2026-04-15 07:41 | 40.20714 | -3.29635 | 37241 ft | 403 kts | 257° |
| 2026-04-15 07:41 | 40.19143 | -3.36681 | 37244 ft | 404 kts | 257° |
| 2026-04-15 07:42 | 40.17562 | -3.43716 | 37264 ft | 403 kts | 256° |
| 2026-04-15 07:42 | 40.15983 | -3.50737 | 37277 ft | 402 kts | 256° |
| 2026-04-15 07:43 | 40.14404 | -3.57757 | 37275 ft | 403 kts | 256° |
| 2026-04-15 07:43 | 40.12825 | -3.64767 | 37287 ft | 402 kts | 256° |
| 2026-04-15 07:44 | 40.10540 | -3.71388 | 37277 ft | 408 kts | 238° |
| 2026-04-15 07:44 | 40.08687 | -3.74218 | 37263 ft | 413 kts | 227° |
| 2026-04-15 07:44 | 40.06423 | -3.76563 | 37252 ft | 418 kts | 218° |
| 2026-04-15 07:45 | 40.01592 | -3.80802 | 37232 ft | 419 kts | 218° |
| 2026-04-15 07:45 | 39.96768 | -3.85044 | 37241 ft | 417 kts | 218° |
| 2026-04-15 07:46 | 39.91961 | -3.89259 | 37216 ft | 416 kts | 219° |
| 2026-04-15 07:46 | 39.87156 | -3.93470 | 37219 ft | 417 kts | 219° |
| 2026-04-15 07:47 | 39.82339 | -3.97688 | 37223 ft | 418 kts | 219° |
| 2026-04-15 07:47 | 39.77518 | -4.01902 | 37222 ft | 418 kts | 218° |
| 2026-04-15 07:48 | 39.72686 | -4.06109 | 37211 ft | 418 kts | 218° |
| 2026-04-15 07:48 | 39.67847 | -4.10316 | 37232 ft | 419 kts | 218° |
| 2026-04-15 07:49 | 39.62997 | -4.14527 | 37231 ft | 420 kts | 218° |
| 2026-04-15 07:49 | 39.58135 | -4.18737 | 37235 ft | 420 kts | 218° |
| 2026-04-15 07:50 | 39.53273 | -4.22944 | 37232 ft | 420 kts | 218° |
| 2026-04-15 07:50 | 39.48414 | -4.27143 | 37230 ft | 420 kts | 218° |
| 2026-04-15 07:51 | 39.43549 | -4.31342 | 37226 ft | 421 kts | 218° |
| 2026-04-15 07:51 | 39.38679 | -4.35539 | 37236 ft | 421 kts | 218° |
| 2026-04-15 07:52 | 39.33806 | -4.39728 | 37232 ft | 421 kts | 218° |
| 2026-04-15 07:52 | 39.28929 | -4.43913 | 37244 ft | 421 kts | 218° |
| 2026-04-15 07:53 | 39.24034 | -4.48094 | 37235 ft | 422 kts | 218° |
| 2026-04-15 07:53 | 39.19141 | -4.52286 | 37242 ft | 423 kts | 218° |
| 2026-04-15 07:54 | 39.14237 | -4.56474 | 37247 ft | 423 kts | 218° |
| 2026-04-15 07:54 | 39.09340 | -4.60651 | 37260 ft | 422 kts | 218° |
| 2026-04-15 07:55 | 39.04480 | -4.64786 | 37267 ft | 421 kts | 218° |
| 2026-04-15 07:56 | 38.97147 | -4.71011 | 37231 ft | 423 kts | 218° |
| 2026-04-15 07:56 | 38.94670 | -4.73109 | 36978 ft | 429 kts | 218° |
| 2026-04-15 07:56 | 38.92180 | -4.75221 | 36719 ft | 429 kts | 218° |
| 2026-04-15 07:56 | 38.89698 | -4.77321 | 36414 ft | 425 kts | 218° |
| 2026-04-15 07:57 | 38.87237 | -4.79398 | 35917 ft | 421 kts | 218° |
| 2026-04-15 07:57 | 38.84797 | -4.81456 | 35412 ft | 418 kts | 218° |
| 2026-04-15 07:57 | 38.82375 | -4.83498 | 34907 ft | 416 kts | 218° |
| 2026-04-15 07:57 | 38.79961 | -4.85530 | 34403 ft | 414 kts | 218° |
| 2026-04-15 07:58 | 38.77561 | -4.87547 | 33848 ft | 412 kts | 217° |
| 2026-04-15 07:58 | 38.75177 | -4.89551 | 33366 ft | 408 kts | 217° |
| 2026-04-15 07:58 | 38.72815 | -4.91535 | 32861 ft | 404 kts | 217° |
| 2026-04-15 07:58 | 38.70475 | -4.93503 | 32385 ft | 401 kts | 217° |
| 2026-04-15 07:59 | 38.68153 | -4.95458 | 31897 ft | 398 kts | 217° |
| 2026-04-15 07:59 | 38.65853 | -4.97391 | 31432 ft | 394 kts | 217° |
| 2026-04-15 07:59 | 38.63569 | -4.99304 | 30966 ft | 391 kts | 217° |
| 2026-04-15 07:59 | 38.61304 | -5.01198 | 30514 ft | 387 kts | 216° |
| 2026-04-15 08:00 | 38.59058 | -5.03078 | 30038 ft | 384 kts | 217° |
| 2026-04-15 08:00 | 38.56834 | -5.04938 | 29599 ft | 379 kts | 216° |
| 2026-04-15 08:00 | 38.54640 | -5.06769 | 29176 ft | 374 kts | 216° |
| 2026-04-15 08:00 | 38.52474 | -5.08578 | 28758 ft | 369 kts | 216° |
| 2026-04-15 08:01 | 38.50386 | -5.10443 | 28350 ft | 363 kts | 223° |
| 2026-04-15 08:01 | 38.48493 | -5.12538 | 27944 ft | 358 kts | 224° |
| 2026-04-15 08:01 | 38.46619 | -5.14618 | 27533 ft | 355 kts | 224° |
| 2026-04-15 08:01 | 38.44757 | -5.16675 | 27116 ft | 353 kts | 224° |
| 2026-04-15 08:02 | 38.42910 | -5.18711 | 26706 ft | 350 kts | 224° |
| 2026-04-15 08:02 | 38.41072 | -5.20734 | 26275 ft | 348 kts | 224° |
| 2026-04-15 08:02 | 38.39246 | -5.22740 | 25856 ft | 346 kts | 224° |
| 2026-04-15 08:02 | 38.37420 | -5.24745 | 25411 ft | 345 kts | 224° |
| 2026-04-15 08:03 | 38.35605 | -5.26741 | 24979 ft | 344 kts | 224° |
| 2026-04-15 08:03 | 38.33792 | -5.28736 | 24535 ft | 344 kts | 224° |
| 2026-04-15 08:03 | 38.31981 | -5.30728 | 24079 ft | 344 kts | 224° |
| 2026-04-15 08:03 | 38.30169 | -5.32717 | 23597 ft | 344 kts | 224° |
| 2026-04-15 08:04 | 38.28363 | -5.34700 | 23135 ft | 342 kts | 223° |
| 2026-04-15 08:04 | 38.26569 | -5.36668 | 22698 ft | 339 kts | 223° |
| 2026-04-15 08:04 | 38.24785 | -5.38622 | 22266 ft | 338 kts | 223° |
| 2026-04-15 08:04 | 38.23009 | -5.40565 | 21845 ft | 336 kts | 223° |
| 2026-04-15 08:05 | 38.21240 | -5.42503 | 21424 ft | 335 kts | 223° |
| 2026-04-15 08:05 | 38.19479 | -5.44428 | 21007 ft | 334 kts | 223° |
| 2026-04-15 08:05 | 38.17745 | -5.46323 | 20594 ft | 333 kts | 223° |
| 2026-04-15 08:05 | 38.15989 | -5.48239 | 20183 ft | 333 kts | 223° |
| 2026-04-15 08:06 | 38.14234 | -5.50150 | 19773 ft | 332 kts | 223° |
| 2026-04-15 08:06 | 38.12479 | -5.52060 | 19360 ft | 332 kts | 223° |
| 2026-04-15 08:06 | 38.10723 | -5.53974 | 18950 ft | 332 kts | 223° |
| 2026-04-15 08:06 | 38.08968 | -5.55887 | 18535 ft | 333 kts | 223° |
| 2026-04-15 08:07 | 38.07211 | -5.57800 | 18088 ft | 332 kts | 223° |
| 2026-04-15 08:07 | 38.05460 | -5.59707 | 17681 ft | 331 kts | 223° |
| 2026-04-15 08:07 | 38.03717 | -5.61606 | 17285 ft | 330 kts | 223° |
| 2026-04-15 08:07 | 38.01980 | -5.63497 | 16893 ft | 329 kts | 223° |
| 2026-04-15 08:08 | 38.00245 | -5.65382 | 16505 ft | 328 kts | 223° |
| 2026-04-15 08:08 | 37.98510 | -5.67262 | 16113 ft | 328 kts | 223° |
| 2026-04-15 08:08 | 37.96776 | -5.69139 | 15732 ft | 328 kts | 223° |
| 2026-04-15 08:08 | 37.95042 | -5.71016 | 15337 ft | 328 kts | 224° |
| 2026-04-15 08:09 | 37.93312 | -5.72889 | 14954 ft | 327 kts | 224° |
| 2026-04-15 08:09 | 37.91580 | -5.74761 | 14578 ft | 327 kts | 224° |
| 2026-04-15 08:09 | 37.89848 | -5.76636 | 14191 ft | 328 kts | 224° |
| 2026-04-15 08:09 | 37.88114 | -5.78509 | 13765 ft | 327 kts | 224° |
| 2026-04-15 08:10 | 37.86384 | -5.80374 | 13375 ft | 326 kts | 224° |
| 2026-04-15 08:10 | 37.84662 | -5.82230 | 12997 ft | 324 kts | 224° |
| 2026-04-15 08:10 | 37.82955 | -5.84075 | 12595 ft | 322 kts | 223° |
| 2026-04-15 08:10 | 37.81252 | -5.85913 | 12192 ft | 321 kts | 223° |
| 2026-04-15 08:11 | 37.79553 | -5.87745 | 11797 ft | 320 kts | 223° |
| 2026-04-15 08:11 | 37.77861 | -5.89568 | 11400 ft | 319 kts | 223° |
| 2026-04-15 08:11 | 37.76197 | -5.91360 | 11003 ft | 318 kts | 223° |
| 2026-04-15 08:11 | 37.74514 | -5.93171 | 10590 ft | 318 kts | 222° |
| 2026-04-15 08:12 | 37.72833 | -5.94979 | 10178 ft | 317 kts | 222° |
| 2026-04-15 08:12 | 37.71184 | -5.96751 | 10053 ft | 304 kts | 222° |
| 2026-04-15 08:12 | 37.69584 | -5.98468 | 9722 ft | 300 kts | 222° |
| 2026-04-15 08:12 | 37.67999 | -6.00168 | 9343 ft | 298 kts | 222° |
| 2026-04-15 08:13 | 37.66435 | -6.01868 | 8970 ft | 295 kts | 224° |
| 2026-04-15 08:13 | 37.64961 | -6.03630 | 8487 ft | 289 kts | 226° |
| 2026-04-15 08:13 | 37.63534 | -6.05372 | 8279 ft | 285 kts | 223° |
| 2026-04-15 08:13 | 37.62025 | -6.06992 | 8250 ft | 285 kts | 219° |
| 2026-04-15 08:14 | 37.60431 | -6.08487 | 8099 ft | 286 kts | 216° |
| 2026-04-15 08:14 | 37.58762 | -6.09840 | 7456 ft | 285 kts | 211° |
| 2026-04-15 08:14 | 37.57030 | -6.11031 | 6869 ft | 283 kts | 206° |
| 2026-04-15 08:14 | 37.55250 | -6.12046 | 6293 ft | 279 kts | 203° |
| 2026-04-15 08:15 | 37.53472 | -6.12916 | 6039 ft | 272 kts | 200° |
| 2026-04-15 08:15 | 37.52285 | -6.13429 | 5928 ft | 272 kts | 198° |
| 2026-04-15 08:15 | 37.50474 | -6.14102 | 5266 ft | 272 kts | 195° |
| 2026-04-15 08:15 | 37.48632 | -6.14627 | 4597 ft | 271 kts | 191° |
| 2026-04-15 08:16 | 37.46773 | -6.15008 | 3871 ft | 270 kts | 188° |
| 2026-04-15 08:16 | 37.44929 | -6.15245 | 3415 ft | 259 kts | 184° |
| 2026-04-15 08:16 | 37.43230 | -6.15081 | 3245 ft | 236 kts | 157° |
| 2026-04-15 08:16 | 37.42035 | -6.13838 | 3050 ft | 222 kts | 119° |
| 2026-04-15 08:17 | 37.41670 | -6.12005 | 2801 ft | 217 kts | 90° |
| 2026-04-15 08:17 | 37.41685 | -6.10116 | 2589 ft | 214 kts | 88° |
| 2026-04-15 08:17 | 37.41707 | -6.08278 | 2512 ft | 205 kts | 88° |
| 2026-04-15 08:17 | 37.41719 | -6.06521 | 2410 ft | 199 kts | 88° |
| 2026-04-15 08:18 | 37.41728 | -6.04784 | 2202 ft | 199 kts | 88° |
| 2026-04-15 08:18 | 37.41737 | -6.03064 | 1952 ft | 192 kts | 88° |
| 2026-04-15 08:18 | 37.41744 | -6.01449 | 1691 ft | 179 kts | 88° |
| 2026-04-15 08:18 | 37.41751 | -5.99939 | 1463 ft | 166 kts | 88° |
| 2026-04-15 08:19 | 37.41756 | -5.98544 | 1242 ft | 154 kts | 88° |
| 2026-04-15 08:19 | 37.41764 | -5.97231 | 1043 ft | 145 kts | 88° |
| 2026-04-15 08:19 | 37.41768 | -5.96005 | 869 ft | 137 kts | 88° |
| 2026-04-15 08:19 | 37.41774 | -5.94818 | 694 ft | 135 kts | 89° |
| 2026-04-15 08:20 | 37.41774 | -5.93648 | 518 ft | 133 kts | 89° |
| 2026-04-15 08:20 | 37.41785 | -5.92480 | 332 ft | 133 kts | 86° |
| 2026-04-15 08:20 | 37.41788 | -5.91340 | 159 ft | 132 kts | 89° |
| 2026-04-15 08:20 | 37.41794 | -5.90237 | 97 ft | 112 kts | 90° |
| 2026-04-15 08:21 | 37.41793 | -5.89490 | 99 ft | 59 kts | 90° |
| 2026-04-15 08:21 | 37.41808 | -5.89241 | 99 ft | 12 kts | 34° |
| 2026-04-15 08:21 | 37.41880 | -5.89279 | 99 ft | 12 kts | 329° |
| 2026-04-15 08:21 | 37.41949 | -5.89332 | 99 ft | 11 kts | 329° |
| 2026-04-15 08:22 | 37.42006 | -5.89389 | 99 ft | 10 kts | 317° |
| 2026-04-15 08:22 | 37.42056 | -5.89448 | 97 ft | 10 kts | 315° |
| 2026-04-15 08:22 | 37.42098 | -5.89504 | 98 ft | 8 kts | 313° |
| 2026-04-15 08:22 | 37.42117 | -5.89530 | 97 ft | 2 kts | 313° |
| 2026-04-15 08:23 | 37.42118 | -5.89530 | 97 ft | 0 kts | 313° |
| 2026-04-15 08:23 | 37.42119 | -5.89531 | 97 ft | 1 kts | 313° |
| 2026-04-15 08:23 | 37.42124 | -5.89539 | 97 ft | 2 kts | 315° |
| 2026-04-15 08:23 | 37.42135 | -5.89552 | 97 ft | 3 kts | 315° |
| 2026-04-15 08:24 | 37.42153 | -5.89574 | 96 ft | 4 kts | 316° |
| 2026-04-15 08:24 | 37.42163 | -5.89573 | 96 ft | 0 kts | 17° |
| 2026-04-15 08:24 | 37.42165 | -5.89571 | 96 ft | 2 kts | 27° |
| 2026-04-15 08:24 | 37.42179 | -5.89544 | 96 ft | 1 kts | 55° |
| 2026-04-15 08:25 | 37.42205 | -5.89509 | 97 ft | 11 kts | 47° |
| 2026-04-15 08:25 | 37.42241 | -5.89448 | 96 ft | 5 kts | 69° |
| 2026-04-15 08:25 | 37.42259 | -5.89433 | 97 ft | 3 kts | 17° |
| 2026-04-15 08:25 | 37.42269 | -5.89438 | 95 ft | 0 kts | 342° |